Impacts TAF Board INFO
FOR SITUATIONAL AWARENESS. NOT TO BE USED FOR FLIGHT PLANNING PURPOSES.
IDs:

KMEI - Meridian/Key Fld, MS, US

Issued at 1203 UTC 21 May 2018
Updated at 1307 UTC 21 May 2018
Potential Impact None Slight Moderate High
Time1258Z 21/14Z 21/15Z 21/16Z 21/17Z 21/18Z 21/19Z 21/20Z 21/21Z 21/22Z 21/23Z 22/00Z 22/01Z 22/02Z>>
Type OBS PRVL PRVL PRVL PRVL PRVL PRVL PRVL PRVL PRVL PRVL PRVL PRVL PRVL
VIS 2 >6 >6 >6 >6 >6 >6 >6 >6 >6 >6 >6 >6 >6
CIG 5 -- -- -- -- -- -- -- 40 40 40 250 250 250
Cover OVC SCT SCT SCT SCT SCT SCT SCT BKN BKN BKN BKN BKN BKN
FltCat IFR VFR VFR VFR VFR VFR VFR VFR VFR VFR VFR VFR VFR VFR
WX BR -- -- -- -- -- -- -- VCTS VCTS VCTS -- -- --
WDir 150 140 140 130 130 130 130 130 80 80 80 100 100 100
WSpd 5 3 3 5 5 5 5 5 6 6 6 3 3 3
WGst -- -- -- -- -- -- -- -- -- -- -- -- -- --

Raw TAF
KMEI 211203Z 2112/2212 06003KT 2SM BR BKN003
  FM211400 14003KT P6SM SCT015 SCT250
  FM211600 13005KT P6SM SCT030 SCT250
  FM212100 08006KT P6SM VCTS BKN040CB BKN100
  FM220000 10003KT P6SM FEW100 BKN250
  FM220800 07003KT P6SM BKN012


Raw METAR
KMEI 211258Z 15005KT 2SM BR OVC005 23/21 A3008 RMK AO2 SLP181 T02280206
KMEI 211248Z 13005KT 2SM BR OVC004 23/21 A3007 RMK AO2 T02280206
KMEI 211158Z 16006KT 1 1/2SM BR OVC003 22/21 A3006 RMK AO2 SLP174 70039 T02220206 10228 20206 52003
KMEI 211153Z 17006KT 1 1/2SM BR OVC003 22/21 A3006 RMK AO2
KMEI 211058Z 00000KT 7SM OVC004 22/21 A3005 RMK AO2 SLP171 T02220206
KMEI 211053Z AUTO 00000KT 8SM OVC004 22/20 A3005 RMK AO2
KMEI 211043Z AUTO 00000KT 9SM BKN006 22/20 A3004 RMK AO2 T02220200
KMEI 211034Z AUTO 09003KT 9SM SCT006 22/20 A3004 RMK AO2 T02170200

METAR Board
Radar Display
Forecast Discussion

FOR SITUATIONAL AWARENESS. NOT TO BE USED FOR FLIGHT PLANNING PURPOSES.